Time;durP1;ratioP1;P1;durP2;ratioP2;P2;SDS_P1;SDS_P2;PMS_P1;PMS_P2;Temp;Humidity;BMP_temperature;BMP_pressure;BME280_temperature;BME280_humidity;BME280_pressure;Samples;Min_cycle;Max_cycle;Signal;HPM_P1;HPM_P2
2024/01/07 00:00:36;;;;;;;4.38;1.27;;;;;;;19.55;53.33;99291.50;5035204;28;20049;-55
2024/01/07 00:03:04;;;;;;;2.08;1.05;;;;;;;19.55;53.40;99287.97;5033452;28;20046;-56
2024/01/07 00:05:31;;;;;;;2.53;1.27;;;;;;;19.55;53.57;99294.19;5030874;28;20072;-56
2024/01/07 00:08:00;;;;;;;2.15;1.25;;;;;;;19.56;53.39;99289.66;5032352;28;20046;-51
2024/01/07 00:10:28;;;;;;;2.00;1.05;;;;;;;19.55;53.35;99288.81;5033638;28;20056;-52
2024/01/07 00:12:55;;;;;;;2.25;1.23;;;;;;;19.56;53.34;99298.53;5034063;28;20412;-54
2024/01/07 00:15:26;;;;;;;3.50;1.50;;;;;;;19.56;53.25;99290.50;5030941;28;20049;-55
2024/01/07 00:17:54;;;;;;;1.70;0.88;;;;;;;19.55;52.97;99294.19;5031684;28;20038;-53
2024/01/07 00:20:21;;;;;;;1.92;1.05;;;;;;;19.55;53.08;99294.19;5034567;28;20499;-49
2024/01/07 00:22:49;;;;;;;2.97;1.50;;;;;;;19.55;52.88;99293.34;5034925;28;20046;-51
2024/01/07 00:25:18;;;;;;;3.33;1.35;;;;;;;19.54;52.71;99295.19;5029701;28;20052;-52
2024/01/07 00:27:45;;;;;;;2.22;0.98;;;;;;;19.54;52.53;99295.19;5032902;28;20054;-54
2024/01/07 00:30:13;;;;;;;2.40;1.00;;;;;;;19.55;52.59;99286.13;5032432;28;20060;-54
2024/01/07 00:32:41;;;;;;;3.40;1.20;;;;;;;19.54;52.51;99286.31;5032421;28;20347;-54
2024/01/07 00:35:08;;;;;;;3.33;1.30;;;;;;;19.54;52.56;99289.84;5029415;28;20049;-54
2024/01/07 00:37:35;;;;;;;2.78;1.23;;;;;;;19.53;52.43;99288.16;5032241;28;20038;-53
2024/01/07 00:40:04;;;;;;;3.50;1.33;;;;;;;19.53;52.51;99288.16;5032454;28;20067;-51
2024/01/07 00:42:32;;;;;;;2.00;0.80;;;;;;;19.53;52.46;99285.47;5033670;28;20053;-55
2024/01/07 00:44:59;;;;;;;2.00;1.20;;;;;;;19.53;52.24;99290.84;5029165;28;20050;-55
2024/01/07 00:47:27;;;;;;;2.30;1.10;;;;;;;19.53;52.18;99290.84;5038190;28;20057;-52
2024/01/07 00:49:54;;;;;;;2.33;1.00;;;;;;;19.53;52.29;99296.22;5033188;28;20510;-53
2024/01/07 00:52:23;;;;;;;1.30;0.73;;;;;;;19.52;52.12;99292.66;5025301;28;20054;-52
2024/01/07 00:54:50;;;;;;;2.28;1.10;;;;;;;19.52;52.04;99302.56;5027413;28;20073;-49
2024/01/07 00:57:18;;;;;;;2.92;1.23;;;;;;;19.52;52.11;99292.66;5033792;28;20057;-53
2024/01/07 00:59:45;;;;;;;2.35;1.10;;;;;;;19.51;52.10;99299.06;5033805;28;20046;-50
2024/01/07 01:02:12;;;;;;;2.78;1.20;;;;;;;19.52;52.19;99310.63;5032909;28;20056;-53
2024/01/07 01:04:40;;;;;;;3.03;1.23;;;;;;;19.51;51.92;99308.97;5029185;28;20056;-53
2024/01/07 01:07:08;;;;;;;1.92;1.00;;;;;;;19.51;52.01;99303.59;5032869;28;20046;-54
2024/01/07 01:09:35;;;;;;;3.05;1.40;;;;;;;19.52;51.93;99310.63;5041026;28;20064;-54
2024/01/07 01:12:03;;;;;;;2.65;1.40;;;;;;;19.51;52.08;99311.63;5031186;28;20057;-56
2024/01/07 01:14:31;;;;;;;2.65;1.33;;;;;;;19.49;52.11;99306.44;5029330;28;20053;-55
2024/01/07 01:16:58;;;;;;;2.45;1.35;;;;;;;19.49;52.01;99314.50;5032840;28;20050;-50
2024/01/07 01:19:25;;;;;;;2.35;1.20;;;;;;;19.49;51.91;99317.19;5031683;28;20050;-50
2024/01/07 01:21:53;;;;;;;2.47;1.45;;;;;;;19.48;51.95;99315.50;5031002;28;20503;-51
2024/01/07 01:24:20;;;;;;;4.25;1.50;;;;;;;19.49;51.93;99327.09;5029218;28;20042;-53
2024/01/07 01:26:48;;;;;;;2.15;1.38;;;;;;;19.47;51.84;99319.19;5032523;28;20057;-50
2024/01/07 01:29:15;;;;;;;1.92;1.02;;;;;;;19.47;51.81;99329.09;5032745;28;20412;-50
2024/01/07 01:31:42;;;;;;;2.33;1.38;;;;;;;19.48;52.09;99328.91;5032608;28;20049;-49
2024/01/07 01:34:10;;;;;;;2.70;1.50;;;;;;;19.46;51.95;99333.63;5027691;28;20049;-52
2024/01/07 01:36:37;;;;;;;3.03;1.30;;;;;;;19.48;51.98;99325.38;5032703;28;20052;-52
2024/01/07 01:39:05;;;;;;;2.55;1.30;;;;;;;19.47;52.03;99324.56;5031579;28;20053;-51
2024/01/07 01:41:33;;;;;;;2.17;1.20;;;;;;;19.48;51.86;99320.03;5032108;28;20042;-52
2024/01/07 01:44:01;;;;;;;2.33;1.30;;;;;;;19.47;51.99;99315.66;5028535;28;20069;-51
2024/01/07 01:46:29;;;;;;;3.08;1.63;;;;;;;19.45;51.69;99323.06;5032760;28;20061;-50
2024/01/07 01:48:57;;;;;;;3.58;1.52;;;;;;;19.45;51.80;99321.22;5031550;28;20061;-56
2024/01/07 01:51:25;;;;;;;2.65;1.48;;;;;;;19.45;52.01;99323.91;5031635;28;20105;-54
2024/01/07 01:53:55;;;;;;;2.33;1.20;;;;;;;19.45;51.90;99320.38;5018817;28;20046;-54
2024/01/07 01:56:22;;;;;;;2.45;1.20;;;;;;;19.45;51.83;99321.22;5034216;28;20068;-55
2024/01/07 01:58:50;;;;;;;2.55;1.27;;;;;;;19.44;51.69;99318.69;5031118;28;20048;-54
2024/01/07 02:01:18;;;;;;;2.33;1.30;;;;;;;19.43;51.84;99320.53;5032745;28;20077;-53
2024/01/07 02:03:46;;;;;;;2.50;1.30;;;;;;;19.43;51.76;99312.47;5028760;28;20436;-54
2024/01/07 02:06:14;;;;;;;2.03;1.20;;;;;;;19.44;51.55;99318.69;5032922;28;20049;-54
2024/01/07 02:08:42;;;;;;;1.88;1.10;;;;;;;19.44;51.72;99321.38;5022817;28;20052;-54
2024/01/07 02:11:22;;;;;;;2.53;1.55;;;;;;;19.42;51.67;99316.19;5032133;28;20053;-55
2024/01/07 02:13:50;;;;;;;2.95;1.50;;;;;;;19.43;51.48;99319.69;5029832;28;20496;-54
2024/01/07 02:16:17;;;;;;;2.97;1.30;;;;;;;19.43;51.59;99320.53;5033957;28;20045;-54
2024/01/07 02:18:45;;;;;;;3.47;1.40;;;;;;;19.42;51.69;99326.09;5029514;28;20052;-55
2024/01/07 02:21:15;;;;;;;2.40;1.20;;;;;;;19.42;51.77;99326.09;5028847;28;20053;-55
2024/01/07 02:23:42;;;;;;;2.50;1.00;;;;;;;19.42;51.62;99321.56;5029481;28;20053;-54
2024/01/07 02:26:09;;;;;;;2.08;1.20;;;;;;;19.41;51.48;99329.78;5032334;28;20107;-55
2024/01/07 02:28:37;;;;;;;3.60;1.50;;;;;;;19.43;51.70;99330.44;5031045;28;20064;-54
2024/01/07 02:31:04;;;;;;;2.70;1.40;;;;;;;19.41;51.66;99321.72;5029976;28;20049;-55
2024/01/07 02:33:32;;;;;;;2.75;1.45;;;;;;;19.42;51.70;99321.56;5029614;28;20046;-55
2024/01/07 02:36:00;;;;;;;2.17;1.00;;;;;;;19.42;51.74;99315.34;5032423;28;20049;-55
2024/01/07 02:38:27;;;;;;;2.75;1.60;;;;;;;19.41;51.59;99317.19;5031260;28;20057;-53
2024/01/07 02:40:54;;;;;;;3.22;1.20;;;;;;;19.42;51.64;99318.03;5029080;28;20049;-52
2024/01/07 02:43:22;;;;;;;2.20;1.20;;;;;;;19.43;51.64;99317.00;5029998;28;20053;-54
2024/01/07 02:45:49;;;;;;;2.30;1.25;;;;;;;19.41;51.69;99306.47;5033099;28;20041;-52
2024/01/07 02:48:16;;;;;;;3.25;1.23;;;;;;;19.42;51.69;99309.97;5031049;28;20064;-54
2024/01/07 02:50:44;;;;;;;2.30;1.30;;;;;;;19.41;51.57;99308.31;5028156;28;20042;-54
2024/01/07 02:53:11;;;;;;;2.15;1.40;;;;;;;19.42;51.81;99307.31;5029488;28;20050;-54
2024/01/07 02:55:39;;;;;;;2.67;1.40;;;;;;;19.42;51.68;99309.97;5021121;28;20049;-53
2024/01/07 02:58:06;;;;;;;2.25;1.40;;;;;;;19.40;51.49;99301.25;5029627;28;20049;-52
2024/01/07 03:00:34;;;;;;;2.78;1.75;;;;;;;19.41;51.57;99305.63;5031718;28;20053;-51
2024/01/07 03:03:01;;;;;;;2.85;1.40;;;;;;;19.41;51.53;99300.25;5029577;28;20045;-52
2024/01/07 03:05:32;;;;;;;2.42;1.30;;;;;;;19.40;51.47;99310.13;5033702;28;20104;-50
2024/01/07 03:08:00;;;;;;;2.50;1.27;;;;;;;19.40;51.58;99303.94;5031594;28;20049;-52
2024/01/07 03:10:27;;;;;;;2.30;1.35;;;;;;;19.41;51.49;99302.94;5028950;28;20049;-55
2024/01/07 03:12:54;;;;;;;2.05;1.30;;;;;;;19.40;51.43;99299.41;5030858;28;20412;-55
2024/01/07 03:15:22;;;;;;;2.60;1.42;;;;;;;19.40;51.26;99296.72;5032778;28;20055;-55
2024/01/07 03:17:49;;;;;;;2.65;1.73;;;;;;;19.40;51.20;99295.88;5031656;28;20072;-54
2024/01/07 03:20:17;;;;;;;2.55;1.40;;;;;;;19.39;51.32;99304.94;5028954;28;20400;-54
2024/01/07 03:22:44;;;;;;;2.50;1.55;;;;;;;19.39;51.36;99291.53;5030074;28;20507;-53
2024/01/07 03:25:12;;;;;;;2.92;1.50;;;;;;;19.38;51.28;99292.53;5036708;28;20052;-53
2024/01/07 03:27:39;;;;;;;2.28;1.33;;;;;;;19.38;51.28;99298.75;5031005;28;20050;-55
2024/01/07 03:30:08;;;;;;;2.63;1.42;;;;;;;19.39;50.98;99292.38;5030115;28;20049;-55
2024/01/07 03:32:35;;;;;;;2.67;1.60;;;;;;;19.37;51.22;99297.06;5035376;28;20049;-54
2024/01/07 03:35:03;;;;;;;2.25;1.10;;;;;;;19.38;51.27;99300.59;5036081;28;20049;-50
2024/01/07 03:37:31;;;;;;;2.15;1.13;;;;;;;19.37;51.25;99304.28;5034808;28;20097;-52
2024/01/07 03:39:58;;;;;;;2.38;1.10;;;;;;;19.37;51.11;99307.81;5032087;28;20057;-52
2024/01/07 03:42:26;;;;;;;1.85;1.02;;;;;;;19.37;51.26;99307.81;5034635;28;20464;-53
2024/01/07 03:44:53;;;;;;;2.33;1.20;;;;;;;19.36;51.16;99313.31;5036533;28;20060;-53
2024/01/07 03:47:21;;;;;;;1.88;1.13;;;;;;;19.37;51.18;99301.59;5035075;28;20056;-56
2024/01/07 03:49:48;;;;;;;2.97;1.67;;;;;;;19.36;51.21;99302.59;5032340;28;20041;-55
2024/01/07 03:52:16;;;;;;;3.08;2.03;;;;;;;19.37;50.98;99313.19;5034170;28;20053;-55
2024/01/07 03:54:43;;;;;;;2.40;1.48;;;;;;;19.36;51.07;99308.78;5029965;28;20037;-53
2024/01/07 03:57:11;;;;;;;2.30;1.35;;;;;;;19.35;51.05;99314.34;5028413;28;20049;-54
2024/01/07 03:59:38;;;;;;;2.03;1.08;;;;;;;19.35;51.02;99301.75;5033729;28;20049;-55
2024/01/07 04:02:06;;;;;;;2.10;1.15;;;;;;;19.37;51.09;99306.97;5034808;28;20048;-54
2024/01/07 04:04:34;;;;;;;2.03;1.20;;;;;;;19.36;51.24;99316.84;5036111;28;20506;-56
2024/01/07 04:07:01;;;;;;;1.90;1.20;;;;;;;19.35;51.22;99304.44;5035123;28;20049;-54
2024/01/07 04:09:28;;;;;;;3.47;1.45;;;;;;;19.34;51.10;99310.81;5032783;28;20154;-56
2024/01/07 04:11:56;;;;;;;1.92;1.00;;;;;;;19.34;51.22;99318.88;5034580;28;20046;-55
2024/01/07 04:14:23;;;;;;;2.70;1.20;;;;;;;19.36;51.16;99310.63;5036193;28;20045;-53
2024/01/07 04:16:51;;;;;;;2.35;1.20;;;;;;;19.34;51.42;99313.50;5034764;28;20049;-55
2024/01/07 04:19:18;;;;;;;3.17;1.58;;;;;;;19.34;51.14;99318.03;5032381;28;20415;-55
2024/01/07 04:21:46;;;;;;;3.17;1.20;;;;;;;19.33;51.06;99316.38;5033665;28;20511;-55
2024/01/07 04:24:14;;;;;;;2.58;1.38;;;;;;;19.34;50.99;99320.72;5035575;28;20045;-55
2024/01/07 04:26:41;;;;;;;2.10;1.10;;;;;;;19.35;51.11;99322.38;5034640;28;20046;-49
2024/01/07 04:29:08;;;;;;;2.50;1.13;;;;;;;19.35;51.35;99322.38;5032127;28;20065;-52
2024/01/07 04:31:36;;;;;;;2.20;1.58;;;;;;;19.35;51.13;99320.53;5033918;28;20042;-54
2024/01/07 04:34:05;;;;;;;2.10;1.10;;;;;;;19.34;51.27;99323.41;5035197;28;20507;-49
2024/01/07 04:36:33;;;;;;;2.95;1.52;;;;;;;19.34;51.08;99328.78;5032717;28;20057;-55
2024/01/07 04:39:00;;;;;;;1.70;1.00;;;;;;;19.33;51.06;99330.63;5032123;28;20061;-55
2024/01/07 04:41:27;;;;;;;2.58;1.35;;;;;;;19.34;50.97;99334.13;5033111;28;20057;-54
2024/01/07 04:43:55;;;;;;;3.17;1.30;;;;;;;19.33;50.80;99327.94;5035237;28;20049;-54
2024/01/07 04:46:22;;;;;;;2.30;1.40;;;;;;;19.32;50.75;99331.59;5033521;28;20053;-55
2024/01/07 04:48:49;;;;;;;2.45;1.35;;;;;;;19.33;50.70;99329.78;5038925;28;20044;-55
2024/01/07 04:51:17;;;;;;;2.42;1.23;;;;;;;19.32;50.86;99326.25;5033549;28;20057;-55
2024/01/07 04:53:44;;;;;;;2.15;1.30;;;;;;;19.33;50.74;99332.47;5034942;28;20052;-54
2024/01/07 04:56:12;;;;;;;2.15;1.02;;;;;;;19.32;50.65;99336.97;5024622;28;20053;-53
2024/01/07 04:58:40;;;;;;;2.38;1.35;;;;;;;19.32;50.69;99336.97;5026361;28;20037;-53
2024/01/07 05:01:07;;;;;;;1.90;1.00;;;;;;;19.32;50.62;99336.13;5036054;28;20053;-48
2024/01/07 05:03:35;;;;;;;2.83;1.30;;;;;;;19.31;50.66;99339.84;5034448;28;20081;-54
2024/01/07 05:06:03;;;;;;;2.28;1.17;;;;;;;19.31;50.63;99343.34;5034062;28;20048;-49
2024/01/07 05:08:31;;;;;;;2.28;1.17;;;;;;;19.30;50.49;99333.63;5032119;28;20053;-51
2024/01/07 05:11:01;;;;;;;2.45;1.20;;;;;;;19.30;50.52;99340.84;5034473;28;20065;-52
2024/01/07 05:13:29;;;;;;;2.05;1.02;;;;;;;19.30;50.46;99340.84;5034746;28;20060;-51
2024/01/07 05:15:56;;;;;;;3.42;1.23;;;;;;;19.30;50.47;99344.38;5033985;28;20041;-54
2024/01/07 05:18:24;;;;;;;2.63;1.33;;;;;;;19.30;50.47;99344.38;5031564;28;20049;-55
2024/01/07 05:20:52;;;;;;;1.90;1.10;;;;;;;19.31;50.30;99353.25;5035241;28;20061;-54
2024/01/07 05:23:20;;;;;;;2.35;1.33;;;;;;;19.29;50.57;99348.06;5033224;28;20057;-55
2024/01/07 05:25:47;;;;;;;2.17;1.23;;;;;;;19.29;50.42;99349.91;5038218;28;20053;-55
2024/01/07 05:28:19;;;;;;;1.77;0.85;;;;;;;19.30;50.40;99359.63;5031986;28;20116;-56
2024/01/07 05:30:46;;;;;;;2.17;1.17;;;;;;;19.29;50.25;99360.66;5036149;28;20045;-55
2024/01/07 05:33:14;;;;;;;1.58;0.82;;;;;;;19.29;50.31;99355.28;5033268;28;20049;-56
2024/01/07 05:35:41;;;;;;;2.00;1.00;;;;;;;19.28;50.10;99365.16;5033268;28;20056;-56
2024/01/07 05:38:08;;;;;;;1.77;1.00;;;;;;;19.29;50.39;99374.06;5030747;28;20892;-53
2024/01/07 05:40:36;;;;;;;2.78;1.30;;;;;;;19.29;50.25;99374.06;5035992;28;20048;-53
2024/01/07 05:43:04;;;;;;;2.75;1.30;;;;;;;19.27;50.25;99374.22;5033034;28;20056;-54
2024/01/07 05:45:31;;;;;;;1.92;1.10;;;;;;;19.27;50.27;99376.88;5032951;28;20052;-51
2024/01/07 05:47:58;;;;;;;2.17;0.98;;;;;;;19.26;50.57;99376.06;5030583;28;20380;-51
2024/01/07 05:50:26;;;;;;;2.08;1.17;;;;;;;19.26;50.34;99376.06;5035426;28;20510;-55
2024/01/07 05:52:53;;;;;;;2.03;1.05;;;;;;;19.26;50.26;99375.22;5032238;28;20053;-53
2024/01/07 05:55:21;;;;;;;2.33;1.15;;;;;;;19.26;50.28;99375.22;5033347;28;20048;-51
2024/01/07 05:57:48;;;;;;;2.30;1.00;;;;;;;19.25;50.10;99376.22;5019241;28;20034;-54
2024/01/07 06:00:16;;;;;;;1.95;1.02;;;;;;;19.25;50.31;99379.75;5035804;28;20049;-54
2024/01/07 06:02:44;;;;;;;1.45;0.80;;;;;;;19.24;50.21;99385.25;5033662;28;20412;-54
2024/01/07 06:05:11;;;;;;;1.70;0.95;;;;;;;19.24;50.19;99390.63;5033013;28;20411;-54
2024/01/07 06:07:39;;;;;;;2.20;1.05;;;;;;;19.23;50.08;99392.47;5030549;28;20392;-55
2024/01/07 06:10:07;;;;;;;2.20;1.10;;;;;;;19.23;50.24;99397.84;5036295;28;20049;-55
2024/01/07 06:12:35;;;;;;;1.90;0.90;;;;;;;19.22;50.17;99396.16;5032826;28;20113;-55
2024/01/07 06:15:02;;;;;;;3.08;1.10;;;;;;;19.23;50.15;99403.22;5032926;28;20403;-54
2024/01/07 06:17:30;;;;;;;2.30;1.05;;;;;;;19.23;50.19;99400.53;5030453;28;20052;-56
2024/01/07 06:19:57;;;;;;;1.70;0.88;;;;;;;19.22;49.98;99401.53;5034587;28;20053;-55
2024/01/07 06:22:25;;;;;;;1.58;0.70;;;;;;;19.23;49.94;99399.69;5023711;28;20399;-56
2024/01/07 06:24:52;;;;;;;1.90;1.00;;;;;;;19.23;49.98;99407.75;5033040;28;20045;-53
2024/01/07 06:27:20;;;;;;;2.08;1.00;;;;;;;19.23;50.02;99402.38;5029800;28;20053;-52
2024/01/07 06:29:47;;;;;;;1.55;0.73;;;;;;;19.23;49.98;99407.75;5035427;28;20060;-51
2024/01/07 06:32:14;;;;;;;2.13;0.80;;;;;;;19.23;49.88;99408.56;5023284;28;20048;-55
2024/01/07 06:34:42;;;;;;;2.00;0.88;;;;;;;19.23;50.00;99410.41;5032242;28;20427;-50
2024/01/07 06:37:10;;;;;;;1.98;0.82;;;;;;;19.24;49.96;99409.41;5028755;28;20053;-55
2024/01/07 06:39:37;;;;;;;1.90;1.00;;;;;;;19.23;49.76;99413.94;5035275;28;20391;-56
2024/01/07 06:42:05;;;;;;;2.13;0.98;;;;;;;19.23;49.98;99411.25;5023292;28;20408;-53
2024/01/07 06:44:33;;;;;;;1.80;0.80;;;;;;;19.23;50.00;99424.69;5032643;28;20064;-55
2024/01/07 06:47:00;;;;;;;2.45;1.10;;;;;;;19.23;50.13;99423.84;5029634;28;20049;-54
2024/01/07 06:49:27;;;;;;;1.42;0.80;;;;;;;19.24;50.07;99433.56;5034852;28;20045;-55
2024/01/07 06:51:55;;;;;;;1.92;0.90;;;;;;;19.24;50.06;99437.09;5023600;28;20041;-52
2024/01/07 06:54:25;;;;;;;1.83;0.85;;;;;;;19.25;50.35;99432.56;5032122;28;20045;-54
2024/01/07 06:56:53;;;;;;;1.80;0.93;;;;;;;19.25;50.38;99437.94;5029036;28;20738;-53
2024/01/07 06:59:20;;;;;;;1.63;0.80;;;;;;;19.24;50.47;99439.78;5025979;28;20052;-51
2024/01/07 07:01:48;;;;;;;2.13;0.80;;;;;;;19.25;50.26;99437.94;5033288;28;20105;-54
2024/01/07 07:04:16;;;;;;;1.75;0.90;;;;;;;19.26;50.27;99442.28;5031837;28;20506;-56
2024/01/07 07:06:43;;;;;;;1.83;0.80;;;;;;;19.25;50.23;99448.69;5041407;28;20052;-55
2024/01/07 07:09:12;;;;;;;2.00;0.90;;;;;;;19.25;50.17;99462.09;5042226;28;20057;-56
2024/01/07 07:11:40;;;;;;;1.67;0.80;;;;;;;19.25;50.20;99464.78;5045514;28;20037;-56
2024/01/07 07:14:07;;;;;;;1.55;0.80;;;;;;;19.24;50.22;99455.88;5037226;28;20415;-55
2024/01/07 07:16:34;;;;;;;1.85;1.02;;;;;;;19.24;50.17;99463.94;5033462;28;20073;-54
2024/01/07 07:19:02;;;;;;;2.22;0.73;;;;;;;19.24;50.28;99466.63;5042954;28;20052;-52
2024/01/07 07:21:30;;;;;;;1.40;0.70;;;;;;;19.25;50.15;99476.34;5033633;28;20048;-53
2024/01/07 07:23:57;;;;;;;1.73;0.90;;;;;;;19.25;50.26;99475.50;5034574;28;20524;-51
2024/01/07 07:26:24;;;;;;;1.95;0.73;;;;;;;19.24;50.14;99481.84;5033518;28;20057;-52
2024/01/07 07:28:52;;;;;;;1.33;0.75;;;;;;;19.22;50.21;99476.66;5044949;28;20467;-53
2024/01/07 07:31:20;;;;;;;1.50;0.70;;;;;;;19.22;50.12;99487.41;5036850;28;20072;-53
2024/01/07 07:33:47;;;;;;;1.67;0.90;;;;;;;19.22;50.09;99484.72;5036237;28;20056;-52
2024/01/07 07:36:15;;;;;;;1.65;0.80;;;;;;;19.22;50.23;99482.03;5032519;28;20076;-54
2024/01/07 07:38:42;;;;;;;1.92;0.70;;;;;;;19.21;50.23;99488.41;5042457;28;20045;-53
2024/01/07 07:41:10;;;;;;;1.35;0.70;;;;;;;19.21;50.14;99492.94;5035899;28;20416;-54
2024/01/07 07:43:40;;;;;;;2.17;0.70;;;;;;;19.21;50.23;99484.88;5036327;28;20495;-53
2024/01/07 07:46:07;;;;;;;1.80;0.70;;;;;;;19.20;50.13;99496.59;5032986;28;20053;-53
2024/01/07 07:48:34;;;;;;;2.08;0.98;;;;;;;19.20;50.26;99492.09;5038666;28;20037;-50
2024/01/07 07:51:02;;;;;;;1.50;0.60;;;;;;;19.20;50.08;99499.28;5036145;28;20403;-53
2024/01/07 07:53:30;;;;;;;1.75;0.70;;;;;;;19.20;50.18;99486.72;5031095;28;20049;-51
2024/01/07 07:55:57;;;;;;;2.00;1.00;;;;;;;19.19;50.09;99485.03;5032585;28;20077;-52
2024/01/07 07:58:25;;;;;;;1.80;0.70;;;;;;;19.19;50.09;99498.44;5039438;28;20048;-54
2024/01/07 08:00:52;;;;;;;1.52;0.82;;;;;;;19.19;50.17;99489.56;5028120;28;20048;-56
2024/01/07 08:03:20;;;;;;;1.33;0.60;;;;;;;19.18;49.99;99496.78;5035868;28;20411;-56
2024/01/07 08:05:47;;;;;;;1.55;0.82;;;;;;;19.18;49.89;99487.88;5033488;28;20054;-56
2024/01/07 08:08:14;;;;;;;1.10;0.60;;;;;;;19.18;50.05;99496.78;5038788;28;20360;-56
2024/01/07 08:10:42;;;;;;;1.30;0.68;;;;;;;19.18;49.95;99496.78;5035708;28;20045;-56
2024/01/07 08:13:09;;;;;;;1.48;0.70;;;;;;;19.19;50.05;99494.94;5036133;28;20045;-56
2024/01/07 08:15:37;;;;;;;1.67;0.70;;;;;;;19.19;49.99;99509.19;5032116;28;20423;-57
2024/01/07 08:18:05;;;;;;;1.80;0.90;;;;;;;19.19;49.98;99508.34;5038265;28;20060;-56
2024/01/07 08:20:33;;;;;;;1.23;0.60;;;;;;;19.19;49.98;99505.66;5035684;28;20064;-57
2024/01/07 08:23:00;;;;;;;1.30;0.60;;;;;;;19.20;49.99;99496.59;5035607;28;20048;-56
2024/01/07 08:25:27;;;;;;;1.80;0.70;;;;;;;19.19;50.20;99508.34;5032531;28;20061;-56
2024/01/07 08:27:55;;;;;;;2.25;1.00;;;;;;;19.20;50.31;99508.19;5038564;28;20422;-57
2024/01/07 08:30:23;;;;;;;0.98;0.50;;;;;;;19.20;50.25;99504.66;5035349;28;20588;-55
2024/01/07 08:32:51;;;;;;;2.08;0.80;;;;;;;19.19;50.19;99519.91;5035521;28;20380;-55
2024/01/07 08:35:18;;;;;;;2.03;0.77;;;;;;;19.19;50.01;99519.91;5033484;28;20046;-56
2024/01/07 08:37:47;;;;;;;1.35;0.70;;;;;;;19.19;50.12;99519.91;5037751;28;20049;-55
2024/01/07 08:40:15;;;;;;;1.17;0.60;;;;;;;19.19;50.15;99514.53;5034003;28;20068;-56
2024/01/07 08:42:42;;;;;;;1.50;0.60;;;;;;;19.18;50.25;99518.22;5041143;28;20052;-56
2024/01/07 08:45:11;;;;;;;1.80;0.88;;;;;;;19.18;50.20;99526.28;5032795;28;20046;-57
2024/01/07 08:47:39;;;;;;;1.40;0.50;;;;;;;19.18;50.23;99537.00;5037560;28;20071;-54
2024/01/07 08:50:12;;;;;;;2.33;0.93;;;;;;;19.19;50.22;99524.44;5037633;28;20046;-55
2024/01/07 08:52:40;;;;;;;1.90;0.90;;;;;;;19.18;50.09;99537.00;5034837;28;20049;-52
2024/01/07 08:55:09;;;;;;;1.63;0.90;;;;;;;19.18;50.00;99531.66;5035014;28;20060;-49
2024/01/07 08:57:38;;;;;;;1.85;0.75;;;;;;;19.17;50.25;99527.28;5036150;28;20045;-50
2024/01/07 09:00:09;;;;;;;2.45;0.70;;;;;;;19.17;50.08;99526.47;5018463;28;20045;-53
2024/01/07 09:02:37;;;;;;;1.67;0.75;;;;;;;19.17;50.12;99532.66;5031520;28;20040;-52
2024/01/07 09:05:09;;;;;;;1.67;0.87;;;;;;;19.16;50.17;99536.34;5036475;28;20060;-54
2024/01/07 09:07:36;;;;;;;1.20;0.77;;;;;;;19.16;50.14;99552.44;5023501;28;20049;-52
2024/01/07 09:10:08;;;;;;;1.73;0.80;;;;;;;19.17;50.35;99556.81;5035364;28;20381;-55
2024/01/07 09:12:37;;;;;;;1.80;0.90;;;;;;;19.17;50.26;99551.44;5032851;28;20037;-57
2024/01/07 09:15:07;;;;;;;2.20;1.00;;;;;;;19.16;50.35;99563.19;5042383;28;20049;-56
2024/01/07 09:17:36;;;;;;;1.60;0.70;;;;;;;19.17;50.30;99562.16;5037231;28;20048;-54
2024/01/07 09:20:08;;;;;;;2.20;0.95;;;;;;;19.16;50.46;99565.88;5040489;28;20392;-55
2024/01/07 09:22:36;;;;;;;2.03;1.00;;;;;;;19.16;50.39;99570.34;5040658;28;20038;-55
2024/01/07 09:25:05;;;;;;;1.95;0.70;;;;;;;19.15;50.39;99569.53;5036866;28;20048;-51
2024/01/07 09:27:33;;;;;;;1.63;0.80;;;;;;;19.15;50.48;99571.38;5026419;28;20045;-54
2024/01/07 09:30:02;;;;;;;2.38;0.90;;;;;;;19.15;50.35;99571.38;5039893;28;20411;-56
2024/01/07 09:32:29;;;;;;;1.55;0.77;;;;;;;19.15;50.13;99557.97;5046107;28;20059;-56
2024/01/07 09:34:57;;;;;;;1.70;0.70;;;;;;;19.15;50.40;99568.69;5036203;28;20041;-57
2024/01/07 09:37:25;;;;;;;1.63;0.60;;;;;;;19.14;50.36;99564.34;5033463;28;20049;-56
2024/01/07 09:39:53;;;;;;;2.67;0.88;;;;;;;19.13;50.46;99566.19;5034889;28;20056;-50
2024/01/07 09:42:21;;;;;;;1.60;0.65;;;;;;;19.13;50.46;99568.84;5034450;28;20416;-55
2024/01/07 09:44:51;;;;;;;2.35;1.00;;;;;;;19.13;50.40;99571.53;5035616;28;20044;-49
2024/01/07 09:47:20;;;;;;;1.38;0.65;;;;;;;19.12;50.42;99569.00;5034695;28;20072;-55
2024/01/07 09:49:47;;;;;;;0.93;0.57;;;;;;;19.13;50.21;99576.06;5041358;28;20045;-52
2024/01/07 09:52:15;;;;;;;1.83;0.90;;;;;;;19.13;50.40;99565.34;5032615;28;20050;-52
2024/01/07 09:54:45;;;;;;;2.45;1.02;;;;;;;19.13;50.26;99562.66;5047589;28;20045;-55
2024/01/07 09:57:13;;;;;;;1.52;0.80;;;;;;;19.13;50.54;99563.50;5038393;28;20052;-53
2024/01/07 09:59:40;;;;;;;1.85;0.88;;;;;;;19.12;50.25;99567.19;5036076;28;20407;-54
2024/01/07 10:02:09;;;;;;;1.55;0.75;;;;;;;19.14;50.44;99575.06;5025003;28;20518;-53
2024/01/07 10:04:37;;;;;;;1.63;0.90;;;;;;;19.12;50.25;99567.19;5034734;28;20054;-55
2024/01/07 10:07:04;;;;;;;1.48;0.70;;;;;;;19.13;50.33;99574.22;5034862;28;20057;-55
2024/01/07 10:09:35;;;;;;;1.52;0.70;;;;;;;19.12;50.34;99569.88;5034221;28;20045;-57
2024/01/07 10:12:03;;;;;;;2.05;0.90;;;;;;;19.12;50.43;99577.91;5037718;28;20049;-57
2024/01/07 10:14:30;;;;;;;2.00;0.95;;;;;;;19.12;50.31;99569.00;5025330;28;20045;-57
2024/01/07 10:17:00;;;;;;;1.98;0.98;;;;;;;19.12;50.25;99577.91;5034661;28;20045;-58
2024/01/07 10:19:27;;;;;;;1.65;0.82;;;;;;;19.12;50.46;99575.22;5032485;28;20056;-56
2024/01/07 10:22:02;;;;;;;2.15;1.00;;;;;;;19.13;50.59;99579.59;5042994;28;20387;-57
2024/01/07 10:24:38;;;;;;;2.63;1.00;;;;;;;19.15;50.99;99576.72;5025846;28;20038;-60
2024/01/07 10:27:07;;;;;;;2.90;1.35;;;;;;;19.14;50.71;99575.91;5033765;28;20522;-59
2024/01/07 10:29:35;;;;;;;2.75;1.30;;;;;;;19.11;50.32;99573.53;5035186;28;20054;-59
2024/01/07 10:32:04;;;;;;;2.33;1.33;;;;;;;19.11;50.23;99570.00;5035007;28;20067;-58
2024/01/07 10:34:36;;;;;;;2.65;1.30;;;;;;;19.11;50.33;99567.31;5033901;28;20049;-59
2024/01/07 10:37:04;;;;;;;3.05;1.67;;;;;;;19.10;50.30;99568.34;5032906;28;20049;-59
2024/01/07 10:39:33;;;;;;;3.38;2.13;;;;;;;18.95;49.28;99565.41;5035483;28;20044;-59
2024/01/07 10:42:00;;;;;;;3.30;2.60;;;;;;;18.80;48.54;99561.63;5023573;28;20061;-59
2024/01/07 10:44:32;;;;;;;4.75;2.58;;;;;;;18.64;48.95;99557.84;5033731;28;20507;-59
2024/01/07 10:47:06;;;;;;;3.67;2.60;;;;;;;18.59;49.10;99554.78;5032286;28;20072;-60
2024/01/07 10:49:36;;;;;;;3.85;1.88;;;;;;;18.56;49.58;99556.97;5040591;28;20049;-59
2024/01/07 10:52:06;;;;;;;3.55;2.30;;;;;;;18.53;49.51;99555.44;5043383;28;20495;-60
2024/01/07 10:54:35;;;;;;;3.38;2.25;;;;;;;18.51;49.62;99555.59;5033605;28;20056;-61
2024/01/07 10:57:21;;;;;;;3.22;2.25;;;;;;;18.51;49.67;99554.72;5033327;28;20050;-60
2024/01/07 10:59:59;;;;;;;7.07;1.95;;;;;;;18.50;49.98;99556.56;5026442;28;20064;-60
2024/01/07 11:02:27;;;;;;;2.78;1.88;;;;;;;18.52;49.77;99554.59;5018559;28;20056;-59
2024/01/07 11:05:00;;;;;;;3.38;1.70;;;;;;;18.57;49.74;99559.47;5032944;28;20049;-59
2024/01/07 11:07:37;;;;;;;2.95;1.52;;;;;;;18.61;50.05;99555.47;5035723;28;20041;-58
2024/01/07 11:10:12;;;;;;;2.38;1.25;;;;;;;18.65;50.19;99556.84;5034663;28;20041;-58
2024/01/07 11:12:39;;;;;;;2.58;1.75;;;;;;;18.65;50.13;99550.66;5033560;28;20049;-58
2024/01/07 11:15:07;;;;;;;7.18;4.68;;;;;;;18.68;49.66;99536.94;5036735;28;20049;-54
2024/01/07 11:17:38;;;;;;;10.38;4.05;;;;;;;18.74;49.76;99547.03;5033132;28;20052;-59
2024/01/07 11:20:08;;;;;;;5.50;2.50;;;;;;;18.74;49.72;99547.88;5034109;28;20072;-59
2024/01/07 11:22:35;;;;;;;6.15;2.75;;;;;;;18.76;49.83;99548.56;5033629;28;20056;-60
2024/01/07 11:25:33;;;;;;;5.53;2.92;;;;;;;18.76;49.71;99540.53;5033014;28;20067;-59
2024/01/07 11:28:01;;;;;;;5.55;2.88;;;;;;;18.75;49.65;99541.50;5033974;28;20060;-59
2024/01/07 11:30:29;;;;;;;4.20;2.55;;;;;;;18.77;49.78;99542.19;5038321;28;20042;-60
2024/01/07 11:32:58;;;;;;;5.25;2.15;;;;;;;18.78;49.57;99538.50;5035255;28;20045;-58
2024/01/07 11:35:55;;;;;;;4.18;2.40;;;;;;;18.77;49.70;99542.19;5034290;28;20045;-59
2024/01/07 11:38:23;;;;;;;5.15;2.47;;;;;;;18.81;49.54;99544.56;5034407;28;20049;-59